^^

Nearby METAR Reports

METAR (Meteorological Aerodrome Report) are Airport generated local weather condition reports for use, predominantly by pilots, these reports are also used as part of compliment of data sets required for Chatteris Weathers prediction software - WxSim.

EGUN - Mildenhall Raf, United Kingdom
Distance from station: ESE 19mi, 31km
Updated: 25/05/2019 15:56
Partly cloudy
Partly cloudy
 Wind from calm
Wind: Calm
Temperature: 21°C
Dew Point: 7°C
Humidity: 40%
Barometer: 1016.6 hPa
Clouds: Partly cloudy
Visibility: 6 miles , 10 km
Cloud details: Few Clouds 1829 m
Few Clouds 5486 m
Partly cloudy 6401 m
2019/05/25 14:56 EGUN 251456Z AUTO 00000KT 9999 FEW060 FEW180 SCT210 21/07 A3002 RMK AO2 SLP169 T02130068 57012 $
EGSC - Cambridge, United Kingdom
Distance from station: SSE 20mi, 32km
Updated: 24/05/2019 17:50
NOT Current
Partly cloudy
Partly cloudy
 Wind from WNW
Wind: WNW 15 mph , 24 km/h
Temperature: 21°C
Dew Point: 9°C
Humidity: 46%
Barometer: 1016 hPa
Clouds: Partly cloudy
Visibility: 6 miles , 10 km
Cloud details: Partly cloudy 1463 m
2019/05/24 16:50 EGSC 241650Z 30013KT 9999 SCT048TCU 21/09 Q1016
 
EGUL - Lakenheath Raf, United Kingdom
Distance from station: E 22mi, 36km
Updated: 25/05/2019 15:56
Clear
Clear
 Wind from NNW
Wind: NNW 7 mph , 11 km/h
Temperature: 21°C
Dew Point: 15°C
Humidity: 69%
Barometer: 1016.6 hPa
Clouds: Clear
Visibility: 6 miles , 10 km
2019/05/25 14:56 EGUL 251456Z AUTO 33006KT 9999 CLR 21/15 A3002 RMK AO2 SLP169 T02060151 57008 $
EGXT - Wittering Raf, United Kingdom
Distance from station: WNW 24mi, 38km
Updated: 25/05/2019 15:50
Mostly cloudy
Mostly cloudy
 Wind from W
Wind: W 12 mph , 19 km/h
Temperature: 20°C
Dew Point: 8°C
Humidity: 46%
Barometer: 1017 hPa
Clouds: Mostly cloudy
Visibility: 6 miles , 10 km
Cloud details: Partly cloudy 1524 m
Mostly cloudy 3962 m
2019/05/25 14:50 EGXT 251450Z AUTO 28010KT 9999 SCT050/// BKN130/// 20/08 Q1017
 
EGYH - Holbeach (aut), United Kingdom
Distance from station: N 27mi, 44km
Updated: 24/05/2019 09:50
NOT Current
Few Clouds
Few Clouds
 Wind from NNW
Wind: NNW 15 mph , 24 km/h
Temperature: 17°C
Dew Point: 9°C
Humidity: 59%
Barometer: 1016 hPa
Clouds: Few Clouds
Visibility: 6 miles , 10 km
Cloud details: Few Clouds 914 m
2019/05/24 08:50 EGYH 240850Z 34013KT 9999 FEW030 17/09 Q1016 BLU
EGSS - Stansted Airport, United Kingdom
Distance from station: SE 11mi, 18km
Updated: 25/05/2019 15:50
Clear
Clear
 Wind from W
Wind: W 9 mph , 15 km/h
Temperature: 21°C
Dew Point: 7°C
Humidity: 40%
Barometer: 1017 hPa
Clouds: Clear
Visibility: 6 miles , 10 km
2019/05/25 14:50 EGSS 251450Z AUTO 28008KT 250V340 9999 NCD 21/07 Q1017
 
EGGW - Luton Airport, United Kingdom
Distance from station: WSW 19mi, 31km
Updated: 25/05/2019 15:50
Clear
Clear
 Wind from WNW
Wind: WNW 10 mph , 17 km/h
Temperature: 21°C
Dew Point: 6°C
Humidity: 38%
Barometer: 1018 hPa
Clouds: Clear
Visibility: 6 miles , 10 km
2019/05/25 14:50 EGGW 251450Z AUTO 29009KT 250V330 9999 NCD 21/06 Q1018
EGLL - London/Heathrow, United Kingdom
Distance from station: SSW 41mi, 66km
Updated: 25/05/2019 15:50
Clear
Clear
 Wind from WNW
Wind: WNW 8 mph , 13 km/h
Temperature: 23°C
Dew Point: 8°C
Humidity: 38%
Barometer: 1017 hPa
Clouds: Clear
Visibility: 6 miles , 10 km
2019/05/25 14:50 EGLL 251450Z AUTO 30007KT 270V340 9999 NCD 23/08 Q1017 NOSIG
 
EGKK - London/Gatwick A, United Kingdom
Distance from station: S 60mi, 97km
Updated: 25/05/2019 15:50
Partly cloudy
Partly cloudy
 Wind from W
Wind: W 9 mph , 15 km/h
Temperature: 21°C
Dew Point: 10°C
Humidity: 50%
Barometer: 1017 hPa
Clouds: Partly cloudy
Visibility: 6 miles , 10 km
Cloud details: Partly cloudy 1463 m
2019/05/25 14:50 EGKK 251450Z 27008KT 230V310 9999 SCT048 21/10 Q1017
EGUY - Wyton Raf, United Kingdom
Distance from station: SW 11mi, 18km
Updated: 04/10/2015 09:50
NOT Current
Haze, Clear
Haze, Clear
 Wind from SSE
Wind: SSE 2 mph , 4 km/h
Temperature: 11°C
Dew Point: 7°C
Humidity: 77%
Barometer: 1014 hPa
Summary: Haze
Clouds: Clear
Visibility: 4 miles , 6 km
2015/10/04 08:50 EGUY 040850Z 15002KT 6000 HZ SKC 11/07 Q1014 WHT

Met Office METAR data link, decoding METAR data code.